Terminal Aerodrome Forecast
Issued by NWS

Home | Current Version | Previous Version | Graphics & Text | Print | Product List | Glossary On
Versions: 1 2 3 4 5 6 7 8 9 10 11 12 13 14 15 16 17 18 19 20
775
FTUS43 KTOP 181138
TAFMHK
TAF
KMHK 181138Z 1812/1912 VRB03KT P6SM VCTS BKN100CB
     FM181500 21007KT P6SM SCT120
     FM190000 32005KT P6SM SKC=

USA.gov is the U.S. government's official web portal to all federal, state and local government web resources and services.